createdAt,value
2018-09-27T00:01:11.799Z,12.50
2018-09-27T00:03:42.740Z,12.50
2018-09-27T00:06:14.042Z,12.50
2018-09-27T00:08:45.020Z,12.40
2018-09-27T00:11:16.051Z,12.40
2018-09-27T00:13:49.962Z,12.30
2018-09-27T00:16:21.150Z,12.30
2018-09-27T00:18:52.169Z,12.20
2018-09-27T00:21:23.269Z,12.10
2018-09-27T00:23:53.954Z,12.10
2018-09-27T00:26:24.962Z,12.10
2018-09-27T00:28:56.028Z,12.10
2018-09-27T00:31:26.985Z,12.00
2018-09-27T00:33:57.693Z,12.00
2018-09-27T00:36:28.669Z,11.90
2018-09-27T00:39:00.002Z,11.90
2018-09-27T00:41:30.939Z,11.90
2018-09-27T00:44:02.739Z,11.90
2018-09-27T00:46:33.863Z,11.80
2018-09-27T00:49:04.868Z,11.90
2018-09-27T00:51:35.846Z,11.90
2018-09-27T00:54:07.336Z,11.80
2018-09-27T00:56:39.341Z,11.80
2018-09-27T00:59:10.099Z,11.90
2018-09-27T01:01:41.519Z,11.90
2018-09-27T01:04:12.665Z,11.90
2018-09-27T01:06:44.668Z,11.80
2018-09-27T01:09:15.464Z,11.80
2018-09-27T01:11:46.526Z,11.80
2018-09-27T01:14:17.447Z,11.80
2018-09-27T01:16:48.259Z,11.80
2018-09-27T01:19:19.294Z,11.80
2018-09-27T01:21:51.265Z,11.70
2018-09-27T01:24:21.962Z,11.70
2018-09-27T01:26:52.970Z,11.70
2018-09-27T01:29:24.175Z,11.70
2018-09-27T01:31:55.702Z,11.70
2018-09-27T01:34:27.314Z,11.70
2018-09-27T01:36:58.893Z,11.60
2018-09-27T01:39:32.001Z,11.60
2018-09-27T01:42:02.714Z,11.50
2018-09-27T01:44:33.944Z,11.50
2018-09-27T01:47:04.662Z,11.50
2018-09-27T01:49:36.357Z,11.50
2018-09-27T01:52:08.046Z,11.50
2018-09-27T01:54:38.873Z,11.50
2018-09-27T01:57:10.286Z,11.40
2018-09-27T01:59:41.437Z,11.50
2018-09-27T02:02:12.439Z,11.50
2018-09-27T02:04:43.526Z,11.40
2018-09-27T02:07:14.454Z,11.50
2018-09-27T02:09:45.428Z,11.40
2018-09-27T02:12:16.498Z,11.40
2018-09-27T02:14:47.249Z,11.40
2018-09-27T02:17:19.144Z,11.40
2018-09-27T02:19:50.610Z,11.30
2018-09-27T02:22:21.585Z,11.30
2018-09-27T02:24:53.550Z,11.30
2018-09-27T02:27:25.777Z,11.30
2018-09-27T02:29:56.682Z,11.30
2018-09-27T02:32:27.729Z,11.30
2018-09-27T02:34:58.779Z,11.30
2018-09-27T02:37:30.314Z,11.30
2018-09-27T02:40:01.083Z,11.30
2018-09-27T02:42:32.634Z,11.20
2018-09-27T02:45:06.919Z,11.20
2018-09-27T02:47:37.626Z,11.20
2018-09-27T02:50:08.285Z,11.20
2018-09-27T02:52:39.118Z,11.20
2018-09-27T02:55:10.039Z,11.10
2018-09-27T02:57:40.789Z,11.10
2018-09-27T03:00:11.464Z,11.00
2018-09-27T03:02:42.220Z,11.00
2018-09-27T03:05:13.208Z,11.00
2018-09-27T03:07:43.884Z,11.00
2018-09-27T03:10:14.827Z,10.90
2018-09-27T03:12:46.109Z,10.90
2018-09-27T03:15:16.844Z,10.90
2018-09-27T03:17:47.830Z,10.80
2018-09-27T03:20:18.750Z,10.80
2018-09-27T03:22:49.692Z,10.80
2018-09-27T03:25:20.683Z,10.80
2018-09-27T03:27:51.443Z,10.70
2018-09-27T03:30:22.623Z,10.70
2018-09-27T03:32:53.914Z,10.70
2018-09-27T03:35:25.273Z,10.70
2018-09-27T03:37:56.627Z,10.70
2018-09-27T03:40:27.600Z,10.80
2018-09-27T03:42:58.551Z,10.80
2018-09-27T03:45:29.491Z,10.80
2018-09-27T03:48:00.597Z,10.80
2018-09-27T03:50:31.618Z,10.80
2018-09-27T03:53:02.333Z,10.70
2018-09-27T03:55:33.149Z,10.70
2018-09-27T03:58:04.229Z,10.60
2018-09-27T04:00:35.362Z,10.60
2018-09-27T04:03:06.077Z,10.60
2018-09-27T04:05:37.308Z,10.60
2018-09-27T04:08:08.813Z,10.60
2018-09-27T04:10:41.283Z,10.50
2018-09-27T04:13:11.878Z,10.50
2018-09-27T04:15:42.866Z,10.60
2018-09-27T04:18:13.952Z,10.60
2018-09-27T04:20:51.708Z,10.60
2018-09-27T04:23:23.470Z,10.60
2018-09-27T04:25:54.579Z,10.60
2018-09-27T04:28:25.917Z,10.60
2018-09-27T04:30:57.205Z,10.60
2018-09-27T04:33:27.847Z,10.50
2018-09-27T04:35:58.928Z,10.50
2018-09-27T04:38:29.680Z,10.50
2018-09-27T04:41:00.584Z,10.50
2018-09-27T04:43:31.602Z,10.50
2018-09-27T04:46:04.032Z,10.50
2018-09-27T04:48:35.775Z,10.50
2018-09-27T04:51:07.359Z,10.50
2018-09-27T04:53:39.393Z,10.50
2018-09-27T04:56:12.581Z,10.50
2018-09-27T04:58:44.160Z,10.50
2018-09-27T05:01:15.712Z,10.50
2018-09-27T05:03:47.166Z,10.50
2018-09-27T05:06:18.622Z,10.50
2018-09-27T05:08:50.387Z,10.50
2018-09-27T05:11:22.346Z,10.40
2018-09-27T05:13:53.492Z,10.40
2018-09-27T05:16:24.490Z,10.40
2018-09-27T05:18:55.552Z,10.40
2018-09-27T05:21:27.536Z,10.40
2018-09-27T05:24:03.477Z,10.40
2018-09-27T05:26:42.034Z,10.40
2018-09-27T05:29:18.205Z,10.40
2018-09-27T05:31:53.997Z,10.30
2018-09-27T05:34:30.978Z,10.30
2018-09-27T05:37:06.299Z,10.30
2018-09-27T05:39:51.345Z,10.30
2018-09-27T05:42:24.515Z,10.30
2018-09-27T05:44:55.590Z,10.30
2018-09-27T05:47:26.581Z,10.30
2018-09-27T05:49:57.663Z,10.30
2018-09-27T05:52:28.851Z,10.20
2018-09-27T05:55:01.001Z,10.10
2018-09-27T05:57:31.982Z,10.10
2018-09-27T06:00:02.730Z,10.10
2018-09-27T06:02:33.599Z,10.10
2018-09-27T06:05:05.098Z,10.10
2018-09-27T06:07:36.201Z,10.20
2018-09-27T06:10:07.445Z,10.20
2018-09-27T06:12:38.326Z,10.30
2018-09-27T06:15:09.631Z,10.40
2018-09-27T06:17:40.758Z,10.40
2018-09-27T06:20:11.543Z,10.50
2018-09-27T06:22:49.103Z,10.60
2018-09-27T06:25:22.054Z,10.70
2018-09-27T06:27:54.447Z,10.80
2018-09-27T06:30:25.195Z,10.90
2018-09-27T06:32:56.112Z,11.00
2018-09-27T06:35:26.695Z,11.10
2018-09-27T06:37:57.626Z,11.20
2018-09-27T06:40:29.534Z,11.30
2018-09-27T06:43:00.092Z,11.40
2018-09-27T06:45:31.171Z,11.50
2018-09-27T06:48:02.087Z,11.60
2018-09-27T06:50:33.310Z,11.70
2018-09-27T06:53:04.786Z,11.90
2018-09-27T06:55:35.733Z,12.00
2018-09-27T06:58:06.724Z,12.10
2018-09-27T07:00:37.798Z,12.20
2018-09-27T07:03:08.704Z,12.40
2018-09-27T07:05:39.522Z,12.50
2018-09-27T07:08:10.169Z,12.60
2018-09-27T07:10:40.984Z,12.80
2018-09-27T07:13:12.018Z,12.90
2018-09-27T07:15:42.823Z,13.00
2018-09-27T07:18:13.533Z,13.10
2018-09-27T07:20:44.138Z,13.30
2018-09-27T07:23:16.173Z,13.40
2018-09-27T07:25:47.382Z,13.50
2018-09-27T07:28:18.202Z,13.70
2018-09-27T07:30:48.794Z,13.80
2018-09-27T07:33:19.958Z,13.90
2018-09-27T07:35:50.563Z,14.00
2018-09-27T07:38:21.490Z,14.20
2018-09-27T07:40:52.675Z,14.30
2018-09-27T07:43:23.250Z,14.50
2018-09-27T07:45:54.163Z,14.60
2018-09-27T07:48:25.912Z,14.70
2018-09-27T07:51:00.476Z,14.90
2018-09-27T07:53:31.511Z,15.00
2018-09-27T07:56:02.328Z,15.20
2018-09-27T07:58:33.336Z,15.30
2018-09-27T08:01:03.842Z,15.40
2018-09-27T08:03:35.488Z,15.60
2018-09-27T08:06:06.083Z,15.70
2018-09-27T08:08:37.258Z,15.80
2018-09-27T08:11:08.664Z,16.00
2018-09-27T08:13:40.006Z,16.20
2018-09-27T08:16:10.630Z,16.30
2018-09-27T08:18:41.576Z,16.50
2018-09-27T08:21:12.556Z,16.60
2018-09-27T08:23:43.314Z,16.80
2018-09-27T08:26:14.791Z,16.90
2018-09-27T08:28:46.503Z,17.00
2018-09-27T08:31:17.414Z,17.20
2018-09-27T08:33:48.609Z,17.40
2018-09-27T08:36:19.571Z,17.50
2018-09-27T08:38:50.335Z,17.70
2018-09-27T08:41:21.406Z,17.90
2018-09-27T08:43:52.605Z,18.00
2018-09-27T08:46:23.105Z,18.20
2018-09-27T08:48:54.575Z,18.30
2018-09-27T08:51:25.375Z,18.50
2018-09-27T08:53:57.563Z,18.60
2018-09-27T08:56:28.665Z,18.80
2018-09-27T08:58:59.652Z,19.00
2018-09-27T09:01:30.497Z,19.10
2018-09-27T09:04:01.678Z,19.20
2018-09-27T09:06:32.476Z,19.40
2018-09-27T09:09:04.069Z,19.50
2018-09-27T09:11:34.709Z,19.70
2018-09-27T09:14:05.814Z,19.90
2018-09-27T09:16:36.846Z,20.00
2018-09-27T09:19:07.797Z,20.20
2018-09-27T09:21:38.875Z,20.30
2018-09-27T09:24:09.667Z,20.50
2018-09-27T09:26:40.293Z,20.60
2018-09-27T09:29:11.338Z,20.80
2018-09-27T09:31:42.193Z,20.90
2018-09-27T09:34:13.379Z,21.10
2018-09-27T09:36:44.467Z,21.20
2018-09-27T09:39:15.353Z,21.40
2018-09-27T09:41:46.814Z,21.50
2018-09-27T09:44:17.597Z,21.70
2018-09-27T09:46:48.579Z,21.80
2018-09-27T09:49:23.287Z,22.00
2018-09-27T09:51:54.263Z,22.00
2018-09-27T09:54:25.334Z,22.20
2018-09-27T09:56:56.136Z,22.30
2018-09-27T09:59:26.655Z,22.40
2018-09-27T10:01:57.579Z,22.50
2018-09-27T10:04:28.240Z,22.70
2018-09-27T10:06:58.917Z,22.80
2018-09-27T10:09:30.266Z,22.90
2018-09-27T10:12:01.091Z,23.00
2018-09-27T10:14:31.889Z,23.10
2018-09-27T10:17:02.567Z,23.10
2018-09-27T10:19:33.418Z,23.20
2018-09-27T10:22:04.130Z,23.30
2018-09-27T10:24:35.122Z,23.40
2018-09-27T10:27:06.011Z,23.40
2018-09-27T10:29:36.496Z,23.50
2018-09-27T10:32:07.218Z,23.60
2018-09-27T10:34:37.759Z,23.70
2018-09-27T10:37:08.742Z,23.80
2018-09-27T10:39:39.267Z,23.80
2018-09-27T10:42:10.054Z,23.90
2018-09-27T10:44:40.521Z,23.90
2018-09-27T10:47:11.397Z,24.00
2018-09-27T10:49:42.375Z,24.10
2018-09-27T10:52:13.121Z,24.10
2018-09-27T10:54:43.595Z,24.20
2018-09-27T10:57:14.153Z,24.20
2018-09-27T10:59:45.128Z,24.30
2018-09-27T11:02:15.922Z,24.30
2018-09-27T11:04:47.090Z,24.30
2018-09-27T11:07:17.917Z,24.40
2018-09-27T11:09:48.694Z,24.40
2018-09-27T11:12:19.489Z,24.40
2018-09-27T11:14:50.248Z,24.50
2018-09-27T11:17:21.095Z,24.50
2018-09-27T11:19:51.863Z,24.60
2018-09-27T11:22:22.466Z,24.60
2018-09-27T11:24:52.958Z,24.70
2018-09-27T11:27:23.747Z,24.70
2018-09-27T11:29:59.883Z,24.70
2018-09-27T11:32:32.450Z,24.70
2018-09-27T11:35:03.247Z,24.70
2018-09-27T11:37:34.436Z,24.80
2018-09-27T11:40:12.279Z,24.80
2018-09-27T11:42:46.084Z,24.80
2018-09-27T11:45:17.948Z,24.80
2018-09-27T11:47:49.101Z,24.80
2018-09-27T11:50:22.361Z,24.80
2018-09-27T11:52:53.933Z,24.90
2018-09-27T11:55:25.141Z,24.90
2018-09-27T11:57:57.556Z,25.00
2018-09-27T12:00:28.471Z,25.00
2018-09-27T12:02:59.719Z,25.00
2018-09-27T12:05:30.507Z,25.10
2018-09-27T12:08:01.315Z,25.10
2018-09-27T12:10:32.104Z,25.10
2018-09-27T12:13:03.712Z,25.10
2018-09-27T12:15:34.167Z,25.10
2018-09-27T12:18:05.281Z,25.10
2018-09-27T12:20:36.221Z,25.10
2018-09-27T12:23:07.251Z,25.10
2018-09-27T12:25:38.272Z,25.00
2018-09-27T12:28:09.134Z,25.00
2018-09-27T12:30:39.996Z,25.00
2018-09-27T12:33:10.890Z,25.00
2018-09-27T12:35:41.696Z,25.00
2018-09-27T12:38:12.424Z,25.00
2018-09-27T12:40:43.220Z,25.00
2018-09-27T12:43:13.971Z,25.00
2018-09-27T12:45:44.692Z,25.00
2018-09-27T12:48:15.486Z,25.00
2018-09-27T12:50:46.367Z,25.00
2018-09-27T12:53:17.365Z,25.00
2018-09-27T12:55:48.071Z,25.00
2018-09-27T12:58:18.999Z,24.90
2018-09-27T13:00:49.682Z,24.90
2018-09-27T13:03:20.836Z,24.90
2018-09-27T13:05:51.738Z,24.80
2018-09-27T13:08:22.430Z,24.80
2018-09-27T13:10:53.286Z,24.80
2018-09-27T13:13:24.171Z,24.80
2018-09-27T13:15:55.258Z,24.70
2018-09-27T13:18:26.144Z,24.70
2018-09-27T13:20:57.070Z,24.70
2018-09-27T13:23:28.036Z,24.70
2018-09-27T13:25:58.814Z,24.70
2018-09-27T13:28:29.673Z,24.70
2018-09-27T13:31:00.739Z,24.70
2018-09-27T13:33:32.039Z,24.70
2018-09-27T13:36:03.356Z,24.60
2018-09-27T13:38:34.289Z,24.60
2018-09-27T13:41:05.247Z,24.60
2018-09-27T13:43:35.910Z,24.60
2018-09-27T13:46:06.654Z,24.60
2018-09-27T13:48:37.353Z,24.60
2018-09-27T13:51:07.977Z,24.50
2018-09-27T13:53:38.855Z,24.50
2018-09-27T13:56:09.494Z,24.50
2018-09-27T13:58:40.426Z,24.50
2018-09-27T14:01:11.198Z,24.50
2018-09-27T14:03:41.842Z,24.40
2018-09-27T14:06:12.463Z,24.40
2018-09-27T14:08:43.202Z,24.40
2018-09-27T14:11:13.836Z,24.40
2018-09-27T14:13:44.613Z,24.40
2018-09-27T14:16:15.445Z,24.40
2018-09-27T14:18:46.229Z,24.40
2018-09-27T14:21:16.905Z,24.40
2018-09-27T14:23:47.747Z,24.40
2018-09-27T14:26:18.365Z,24.40
2018-09-27T14:28:49.038Z,24.40
2018-09-27T14:31:19.702Z,24.40
2018-09-27T14:33:50.333Z,24.40
2018-09-27T14:36:21.030Z,24.40
2018-09-27T14:38:51.713Z,24.40
2018-09-27T14:41:22.455Z,24.40
2018-09-27T14:43:53.271Z,24.40
2018-09-27T14:46:25.298Z,24.40
2018-09-27T14:48:55.903Z,24.40
2018-09-27T14:51:26.554Z,24.40
2018-09-27T14:53:57.476Z,24.40
2018-09-27T14:56:28.164Z,24.40
2018-09-27T14:58:58.846Z,24.40
2018-09-27T15:01:29.533Z,24.40
2018-09-27T15:04:00.642Z,24.30
2018-09-27T15:06:31.337Z,24.30
2018-09-27T15:09:02.146Z,24.30
2018-09-27T15:11:32.774Z,24.30
2018-09-27T15:14:03.506Z,24.30
2018-09-27T15:16:34.320Z,24.30
2018-09-27T15:19:05.182Z,24.30
2018-09-27T15:21:35.996Z,24.30
2018-09-27T15:24:06.969Z,24.30
2018-09-27T15:26:37.783Z,24.30
2018-09-27T15:29:08.579Z,24.20
2018-09-27T15:31:39.199Z,24.30
2018-09-27T15:34:09.886Z,24.20
2018-09-27T15:36:40.560Z,24.20
2018-09-27T15:39:11.865Z,24.20
2018-09-27T15:41:42.461Z,24.20
2018-09-27T15:44:13.442Z,24.10
2018-09-27T15:46:44.280Z,24.20
2018-09-27T15:49:14.931Z,24.20
2018-09-27T15:51:45.728Z,24.10
2018-09-27T15:54:16.651Z,24.10
2018-09-27T15:56:47.452Z,24.10
2018-09-27T15:59:18.089Z,24.00
2018-09-27T16:01:48.622Z,24.00
2018-09-27T16:04:19.426Z,24.00
2018-09-27T16:06:50.346Z,23.90
2018-09-27T16:09:21.166Z,23.90
2018-09-27T16:11:52.193Z,23.80
2018-09-27T16:14:23.071Z,23.80
2018-09-27T16:16:53.967Z,23.80
2018-09-27T16:19:24.736Z,23.70
2018-09-27T16:21:55.731Z,23.70
2018-09-27T16:24:26.618Z,23.60
2018-09-27T16:26:57.554Z,23.50
2018-09-27T16:29:28.199Z,23.50
2018-09-27T16:31:58.979Z,23.40
2018-09-27T16:34:29.668Z,23.30
2018-09-27T16:37:00.345Z,23.30
2018-09-27T16:39:31.437Z,23.20
2018-09-27T16:42:02.092Z,23.20
2018-09-27T16:44:32.764Z,23.10
2018-09-27T16:47:03.482Z,23.00
2018-09-27T16:49:35.253Z,22.90
2018-09-27T16:52:05.845Z,22.80
2018-09-27T16:54:36.513Z,22.70
2018-09-27T16:57:07.365Z,22.60
2018-09-27T16:59:38.014Z,22.50
2018-09-27T17:02:08.839Z,22.50
2018-09-27T17:04:39.500Z,22.40
2018-09-27T17:07:10.121Z,22.30
2018-09-27T17:09:40.942Z,22.30
2018-09-27T17:12:11.602Z,22.20
2018-09-27T17:14:42.324Z,22.10
2018-09-27T17:17:12.984Z,22.00
2018-09-27T17:19:43.631Z,22.00
2018-09-27T17:22:14.257Z,21.90
2018-09-27T17:24:45.018Z,21.80
2018-09-27T17:27:15.739Z,21.70
2018-09-27T17:29:46.340Z,21.60
2018-09-27T17:32:17.286Z,21.60
2018-09-27T17:34:48.224Z,21.40
2018-09-27T17:37:18.940Z,21.30
2018-09-27T17:39:49.567Z,21.30
2018-09-27T17:42:20.274Z,21.20
2018-09-27T17:44:51.517Z,21.10
2018-09-27T17:47:22.361Z,21.10
2018-09-27T17:49:53.074Z,21.00
2018-09-27T17:52:24.134Z,20.90
2018-09-27T17:54:55.209Z,20.80
2018-09-27T17:57:25.816Z,20.70
2018-09-27T17:59:56.552Z,20.70
2018-09-27T18:02:27.244Z,20.60
2018-09-27T18:04:58.247Z,20.50
2018-09-27T18:07:29.212Z,20.50
2018-09-27T18:10:00.382Z,20.30
2018-09-27T18:12:31.038Z,20.30
2018-09-27T18:15:01.700Z,20.20
2018-09-27T18:17:32.531Z,20.20
2018-09-27T18:20:03.399Z,20.10
2018-09-27T18:22:34.562Z,20.00
2018-09-27T18:25:05.816Z,20.00
2018-09-27T18:27:36.724Z,19.90
2018-09-27T18:30:07.668Z,19.80
2018-09-27T18:32:38.359Z,19.70
2018-09-27T18:35:09.093Z,19.70
2018-09-27T18:37:39.813Z,19.60
2018-09-27T18:40:11.016Z,19.50
2018-09-27T18:42:42.218Z,19.50
2018-09-27T18:45:12.954Z,19.40
2018-09-27T18:47:44.482Z,19.40
2018-09-27T18:50:16.711Z,19.30
2018-09-27T18:52:47.363Z,19.20
2018-09-27T18:55:18.275Z,19.20
2018-09-27T18:57:49.171Z,19.20
2018-09-27T19:00:22.031Z,19.10
2018-09-27T19:02:52.980Z,19.00
2018-09-27T19:05:23.610Z,19.00
2018-09-27T19:07:54.463Z,18.90
2018-09-27T19:10:25.359Z,18.90
2018-09-27T19:12:55.990Z,18.90
2018-09-27T19:15:26.949Z,18.80
2018-09-27T19:17:57.594Z,18.70
2018-09-27T19:20:28.300Z,18.60
2018-09-27T19:22:59.196Z,18.60
2018-09-27T19:25:30.053Z,18.50
2018-09-27T19:28:00.648Z,18.50
2018-09-27T19:30:31.562Z,18.40
2018-09-27T19:33:02.758Z,18.40
2018-09-27T19:35:35.212Z,18.30
2018-09-27T19:38:06.512Z,18.30
2018-09-27T19:40:37.503Z,18.20
2018-09-27T19:43:08.286Z,18.20
2018-09-27T19:45:39.856Z,18.10
2018-09-27T19:48:10.521Z,18.10
2018-09-27T19:50:41.314Z,18.00
2018-09-27T19:53:12.338Z,18.00
2018-09-27T19:55:43.097Z,18.00
2018-09-27T19:58:13.862Z,17.90
2018-09-27T20:00:45.192Z,17.90
2018-09-27T20:03:16.190Z,17.80
2018-09-27T20:05:47.128Z,17.80
2018-09-27T20:08:18.185Z,17.70
2018-09-27T20:10:48.913Z,17.60
2018-09-27T20:13:19.748Z,17.60
2018-09-27T20:15:50.590Z,17.50
2018-09-27T20:18:21.410Z,17.50
2018-09-27T20:20:52.239Z,17.50
2018-09-27T20:23:23.120Z,17.40
2018-09-27T20:25:54.015Z,17.40
2018-09-27T20:28:24.881Z,17.30
2018-09-27T20:30:55.635Z,17.30
2018-09-27T20:33:26.586Z,17.20
2018-09-27T20:35:57.391Z,17.20
2018-09-27T20:38:28.397Z,17.10
2018-09-27T20:40:59.110Z,17.10
2018-09-27T20:43:29.780Z,17.00
2018-09-27T20:46:00.856Z,17.00
2018-09-27T20:48:31.518Z,17.00
2018-09-27T20:51:02.825Z,16.90
2018-09-27T20:53:33.895Z,16.90
2018-09-27T20:56:04.719Z,16.80
2018-09-27T20:58:35.856Z,16.80
2018-09-27T21:01:06.548Z,16.70
2018-09-27T21:03:37.303Z,16.60
2018-09-27T21:06:08.203Z,16.60
2018-09-27T21:08:38.915Z,16.60
2018-09-27T21:11:09.587Z,16.50
2018-09-27T21:13:40.243Z,16.50
2018-09-27T21:16:11.231Z,16.40
2018-09-27T21:18:41.966Z,16.40
2018-09-27T21:21:13.040Z,16.40
2018-09-27T21:23:43.577Z,16.30
2018-09-27T21:26:14.664Z,16.30
2018-09-27T21:28:45.444Z,16.30
2018-09-27T21:31:16.156Z,16.30
2018-09-27T21:33:47.146Z,16.20
2018-09-27T21:36:18.078Z,16.20
2018-09-27T21:38:48.982Z,16.10
2018-09-27T21:41:19.991Z,16.10
2018-09-27T21:43:51.018Z,16.10
2018-09-27T21:46:22.067Z,16.10
2018-09-27T21:48:52.662Z,16.00
2018-09-27T21:51:23.323Z,16.00
2018-09-27T21:53:54.014Z,16.00
2018-09-27T21:56:24.649Z,16.00
2018-09-27T21:58:55.356Z,15.90
2018-09-27T22:01:26.322Z,15.90
2018-09-27T22:03:57.090Z,15.90
2018-09-27T22:06:27.766Z,15.80
2018-09-27T22:08:58.625Z,15.80
2018-09-27T22:11:29.561Z,15.80
2018-09-27T22:14:00.557Z,15.80
2018-09-27T22:16:31.240Z,15.80
2018-09-27T22:19:02.329Z,15.80
2018-09-27T22:21:33.265Z,15.70
2018-09-27T22:24:04.117Z,15.70
2018-09-27T22:26:35.112Z,15.70
2018-09-27T22:29:05.889Z,15.60
2018-09-27T22:31:36.742Z,15.60
2018-09-27T22:34:07.343Z,15.60
2018-09-27T22:36:37.951Z,15.50
2018-09-27T22:39:09.516Z,15.50
2018-09-27T22:41:40.418Z,15.50
2018-09-27T22:44:11.362Z,15.50
2018-09-27T22:46:42.011Z,15.40
2018-09-27T22:49:12.653Z,15.40
2018-09-27T22:51:43.354Z,15.40
2018-09-27T22:54:14.033Z,15.40
2018-09-27T22:56:44.670Z,15.40
2018-09-27T22:59:15.451Z,15.40
2018-09-27T23:01:46.411Z,15.30
2018-09-27T23:04:17.302Z,15.30
2018-09-27T23:06:48.199Z,15.30
2018-09-27T23:09:24.819Z,15.30
2018-09-27T23:11:55.837Z,15.20
2018-09-27T23:14:26.911Z,15.20
2018-09-27T23:16:57.556Z,15.10
2018-09-27T23:19:28.226Z,15.10
2018-09-27T23:21:59.062Z,15.10
2018-09-27T23:24:29.691Z,15.00
2018-09-27T23:27:00.767Z,15.00
2018-09-27T23:29:31.415Z,15.00
2018-09-27T23:32:01.994Z,15.00
2018-09-27T23:34:32.649Z,15.00
2018-09-27T23:37:03.579Z,14.90
2018-09-27T23:39:34.493Z,14.90
2018-09-27T23:42:05.180Z,14.90
2018-09-27T23:44:36.052Z,14.90
2018-09-27T23:47:07.126Z,14.90
2018-09-27T23:49:37.662Z,14.90
2018-09-27T23:52:08.450Z,14.80
2018-09-27T23:54:39.001Z,14.80
2018-09-27T23:57:09.675Z,14.80
2018-09-27T23:59:40.427Z,14.80
